Wetterdaten: Woche 11.02.19 - 17.02.19 (KW7)
Datum Zeit Temperatur Luftfeuchte Luftdruck Niederschlag Windrichtung Sonnenschein Solar Wind
11.02.2019 00:00 2,8 C 88 % 1006,2 hPa 0,0 l/m W-SW 0,00 h 0 W/m 25,2 km/h (4 Bft)
11.02.2019 01:00 2,4 C 89 % 1007,2 hPa 0,0 l/m W-SW 0,00 h 0 W/m 21,3 km/h (4 Bft)
11.02.2019 02:00 2,3 C 91 % 1008,0 hPa 0,0 l/m W 0,00 h 0 W/m 18,1 km/h (3 Bft)
11.02.2019 03:00 1,8 C 91 % 1008,7 hPa 0,2 l/m W 0,00 h 0 W/m 14,5 km/h (3 Bft)
11.02.2019 04:00 1,3 C 93 % 1008,8 hPa 0,0 l/m W-SW 0,00 h 0 W/m 14,2 km/h (3 Bft)
11.02.2019 05:00 1,3 C 93 % 1010,6 hPa 0,6 l/m W 0,00 h 0 W/m 11,9 km/h (2 Bft)
11.02.2019 06:00 1,3 C 90 % 1011,6 hPa 0,0 l/m W-NW 0,00 h 0 W/m 18,0 km/h (3 Bft)
11.02.2019 07:00 1,5 C 86 % 1012,8 hPa 0,0 l/m W-NW 0,00 h 7 W/m 14,3 km/h (3 Bft)
11.02.2019 08:00 1,7 C 82 % 1014,2 hPa 0,0 l/m W 0,00 h 42 W/m 16,9 km/h (3 Bft)
11.02.2019 09:00 2,0 C 81 % 1015,4 hPa 0,0 l/m W 0,00 h 101 W/m 21,5 km/h (4 Bft)
11.02.2019 10:00 2,5 C 76 % 1016,6 hPa 0,0 l/m W-NW 0,00 h 146 W/m 22,1 km/h (4 Bft)
11.02.2019 11:00 3,0 C 73 % 1017,7 hPa 0,0 l/m W-NW 0,08 h 214 W/m 22,4 km/h (4 Bft)
11.02.2019 12:00 3,2 C 70 % 1018,5 hPa 0,0 l/m W 0,00 h 147 W/m 20,4 km/h (4 Bft)
11.02.2019 13:00 3,2 C 73 % 1019,4 hPa 0,0 l/m W-NW 0,00 h 108 W/m 16,2 km/h (3 Bft)
11.02.2019 14:00 3,3 C 68 % 1020,0 hPa 0,0 l/m W-NW 0,00 h 93 W/m 19,6 km/h (3 Bft)
11.02.2019 15:00 3,7 C 68 % 1020,8 hPa 0,0 l/m W-NW 0,25 h 156 W/m 19,4 km/h (3 Bft)
11.02.2019 16:00 3,5 C 72 % 1022,1 hPa 0,0 l/m W 0,17 h 57 W/m 15,0 km/h (3 Bft)
11.02.2019 17:00 3,0 C 78 % 1023,5 hPa 0,0 l/m W-NW 0,00 h 7 W/m 11,9 km/h (2 Bft)
11.02.2019 18:00 1,9 C 85 % 1024,5 hPa 0,0 l/m W-NW 0,00 h 0 W/m 6,2 km/h (2 Bft)
11.02.2019 19:00 1,6 C 84 % 1025,0 hPa 0,0 l/m W 0,00 h 0 W/m 5,9 km/h (2 Bft)
11.02.2019 20:00 1,5 C 84 % 1026,1 hPa 0,0 l/m W-NW 0,00 h 0 W/m 9,3 km/h (2 Bft)
11.02.2019 21:00 1,6 C 84 % 1027,0 hPa 0,0 l/m W-NW 0,00 h 0 W/m 12,3 km/h (3 Bft)
11.02.2019 22:00 1,7 C 85 % 1027,6 hPa 0,0 l/m W 0,00 h 0 W/m 10,1 km/h (2 Bft)
11.02.2019 23:00 1,6 C 86 % 1027,9 hPa 0,0 l/m W 0,00 h 0 W/m 6,7 km/h (2 Bft)
12.02.2019 00:00 1,3 C 88 % 1028,5 hPa 0,0 l/m W 0,00 h 0 W/m 5,7 km/h (1 Bft)
12.02.2019 01:00 1,0 C 89 % 1029,4 hPa 0,0 l/m W 0,00 h 0 W/m 8,0 km/h (2 Bft)
12.02.2019 02:00 1,0 C 90 % 1030,1 hPa 0,0 l/m W-NW 0,00 h 0 W/m 4,2 km/h (1 Bft)
12.02.2019 03:00 0,7 C 90 % 1030,5 hPa 0,0 l/m W-NW 0,00 h 0 W/m 2,7 km/h (1 Bft)
12.02.2019 04:00 0,4 C 90 % 1030,8 hPa 0,0 l/m W-NW 0,00 h 0 W/m 3,5 km/h (1 Bft)
12.02.2019 05:00 0,4 C 92 % 1031,3 hPa 0,0 l/m W-NW 0,00 h 0 W/m 9,7 km/h (2 Bft)
12.02.2019 06:00 0,8 C 91 % 1031,6 hPa 0,0 l/m W 0,00 h 0 W/m 6,5 km/h (2 Bft)
12.02.2019 07:00 0,7 C 91 % 1032,0 hPa 0,0 l/m N 0,00 h 8 W/m 0,5 km/h (0 Bft)
12.02.2019 08:00 0,4 C 92 % 1032,7 hPa 0,0 l/m N 0,00 h 35 W/m 0,0 km/h (0 Bft)
12.02.2019 09:00 0,7 C 94 % 1033,4 hPa 0,0 l/m W 0,00 h 104 W/m 0,8 km/h (0 Bft)
12.02.2019 10:00 1,6 C 93 % 1033,8 hPa 0,0 l/m SW 0,42 h 234 W/m 5,8 km/h (1 Bft)
12.02.2019 11:00 2,5 C 81 % 1034,0 hPa 0,0 l/m SW 0,08 h 161 W/m 11,0 km/h (2 Bft)
12.02.2019 12:00 3,5 C 64 % 1034,1 hPa 0,0 l/m W-NW 0,58 h 335 W/m 11,5 km/h (2 Bft)
12.02.2019 13:00 3,5 C 66 % 1034,0 hPa 0,0 l/m W-NW 0,17 h 199 W/m 11,1 km/h (2 Bft)
12.02.2019 14:00 3,5 C 68 % 1034,2 hPa 0,0 l/m W-NW 0,08 h 184 W/m 12,9 km/h (3 Bft)
12.02.2019 15:00 3,8 C 68 % 1034,3 hPa 0,0 l/m W-NW 0,58 h 183 W/m 10,1 km/h (2 Bft)
12.02.2019 16:00 3,7 C 68 % 1034,1 hPa 0,0 l/m N-NW 0,58 h 113 W/m 10,6 km/h (2 Bft)
12.02.2019 17:00 2,6 C 72 % 1034,3 hPa 0,0 l/m N-NW 0,50 h 29 W/m 1,6 km/h (1 Bft)
12.02.2019 18:00 2,0 C 74 % 1035,1 hPa 0,0 l/m N 0,00 h 0 W/m 0,5 km/h (0 Bft)
12.02.2019 19:00 0,9 C 75 % 1035,7 hPa 0,0 l/m N 0,00 h 0 W/m 0,0 km/h (0 Bft)
12.02.2019 20:00 -0,4 C 79 % 1035,9 hPa 0,0 l/m N 0,00 h 0 W/m 0,0 km/h (0 Bft)
12.02.2019 21:00 -1,4 C 81 % 1036,1 hPa 0,0 l/m N 0,00 h 0 W/m 0,0 km/h (0 Bft)
12.02.2019 22:00 -2,1 C 84 % 1036,4 hPa 0,0 l/m N 0,00 h 0 W/m 0,0 km/h (0 Bft)
12.02.2019 23:00 -2,6 C 85 % 1036,5 hPa 0,0 l/m N 0,00 h 0 W/m 0,0 km/h (0 Bft)
13.02.2019 00:00 -3,0 C 87 % 1036,6 hPa 0,0 l/m N 0,00 h 0 W/m 0,0 km/h (0 Bft)
13.02.2019 01:00 -3,3 C 88 % 1036,2 hPa 0,0 l/m N 0,00 h 0 W/m 0,0 km/h (0 Bft)
13.02.2019 02:00 -3,7 C 89 % 1036,6 hPa 0,0 l/m N 0,00 h 0 W/m 0,0 km/h (0 Bft)
13.02.2019 03:00 -4,0 C 90 % 1036,4 hPa 0,0 l/m N 0,00 h 0 W/m 0,0 km/h (0 Bft)
13.02.2019 04:00 -4,3 C 91 % 1036,6 hPa 0,0 l/m N 0,00 h 0 W/m 0,0 km/h (0 Bft)
13.02.2019 05:00 -4,6 C 91 % 1036,9 hPa 0,0 l/m N 0,00 h 0 W/m 0,0 km/h (0 Bft)
13.02.2019 06:00 -4,8 C 92 % 1037,4 hPa 0,0 l/m N 0,00 h 0 W/m 0,0 km/h (0 Bft)
13.02.2019 07:00 -4,9 C 92 % 1037,6 hPa 0,0 l/m N 0,08 h 11 W/m 0,0 km/h (0 Bft)
13.02.2019 08:00 -4,9 C 93 % 1037,8 hPa 0,0 l/m N 0,75 h 107 W/m 0,0 km/h (0 Bft)
13.02.2019 09:00 -2,6 C 94 % 1037,6 hPa 0,0 l/m N 0,92 h 241 W/m 0,0 km/h (0 Bft)
13.02.2019 10:00 0,1 C 89 % 1037,4 hPa 0,0 l/m N-NW 1,00 h 363 W/m 1,5 km/h (1 Bft)
13.02.2019 11:00 2,8 C 78 % 1037,4 hPa 0,0 l/m W-NW 1,00 h 452 W/m 1,6 km/h (1 Bft)
13.02.2019 12:00 5,0 C 68 % 1037,3 hPa 0,0 l/m NW 1,00 h 479 W/m 6,4 km/h (2 Bft)
13.02.2019 13:00 6,5 C 61 % 1036,8 hPa 0,0 l/m NO 1,00 h 456 W/m 5,3 km/h (1 Bft)
13.02.2019 14:00 7,8 C 57 % 1036,4 hPa 0,0 l/m NO 1,00 h 381 W/m 5,5 km/h (1 Bft)
13.02.2019 15:00 8,2 C 55 % 1036,3 hPa 0,0 l/m O-NO 1,00 h 251 W/m 7,1 km/h (2 Bft)
13.02.2019 16:00 7,8 C 54 % 1036,0 hPa 0,0 l/m O-NO 0,92 h 123 W/m 5,1 km/h (1 Bft)
13.02.2019 17:00 6,1 C 58 % 1036,2 hPa 0,0 l/m O-NO 0,08 h 18 W/m 1,1 km/h (0 Bft)
13.02.2019 18:00 3,8 C 66 % 1036,4 hPa 0,0 l/m N 0,00 h 0 W/m 0,0 km/h (0 Bft)
13.02.2019 19:00 2,3 C 71 % 1036,4 hPa 0,0 l/m O-NO 0,00 h 0 W/m 1,9 km/h (1 Bft)
13.02.2019 20:00 1,5 C 76 % 1036,3 hPa 0,0 l/m O-NO 0,00 h 0 W/m 1,3 km/h (1 Bft)
13.02.2019 21:00 0,6 C 78 % 1036,3 hPa 0,0 l/m N 0,00 h 0 W/m 0,0 km/h (0 Bft)
13.02.2019 22:00 -0,3 C 80 % 1036,3 hPa 0,0 l/m N 0,00 h 0 W/m 0,0 km/h (0 Bft)
13.02.2019 23:00 -1,1 C 82 % 1036,2 hPa 0,0 l/m N 0,00 h 0 W/m 0,0 km/h (0 Bft)
14.02.2019 00:00 -1,6 C 86 % 1036,4 hPa 0,0 l/m N 0,00 h 0 W/m 0,0 km/h (0 Bft)
14.02.2019 01:00 -2,1 C 88 % 1036,8 hPa 0,0 l/m N 0,00 h 0 W/m 0,1 km/h (0 Bft)
14.02.2019 02:00 -2,6 C 88 % 1036,7 hPa 0,0 l/m N 0,00 h 0 W/m 0,0 km/h (0 Bft)
14.02.2019 03:00 -3,1 C 89 % 1036,5 hPa 0,0 l/m N 0,00 h 0 W/m 0,0 km/h (0 Bft)
14.02.2019 04:00 -3,4 C 90 % 1036,6 hPa 0,0 l/m N 0,00 h 0 W/m 0,0 km/h (0 Bft)
14.02.2019 05:00 -3,7 C 91 % 1036,6 hPa 0,0 l/m N 0,00 h 0 W/m 0,0 km/h (0 Bft)
14.02.2019 06:00 -3,9 C 92 % 1036,7 hPa 0,0 l/m N 0,00 h 0 W/m 0,0 km/h (0 Bft)
14.02.2019 07:00 -4,0 C 93 % 1037,3 hPa 0,0 l/m N 0,25 h 17 W/m 0,0 km/h (0 Bft)
14.02.2019 08:00 -3,2 C 94 % 1037,9 hPa 0,0 l/m N 1,00 h 113 W/m 0,0 km/h (0 Bft)
14.02.2019 09:00 -0,7 C 92 % 1037,8 hPa 0,0 l/m N 1,00 h 218 W/m 0,0 km/h (0 Bft)
14.02.2019 10:00 2,0 C 88 % 1037,6 hPa 0,0 l/m O-NO 0,92 h 359 W/m 0,3 km/h (0 Bft)
14.02.2019 11:00 5,5 C 74 % 1037,3 hPa 0,0 l/m O 1,00 h 460 W/m 5,5 km/h (1 Bft)
14.02.2019 12:00 7,8 C 62 % 1036,9 hPa 0,0 l/m O 1,00 h 486 W/m 5,8 km/h (1 Bft)
14.02.2019 13:00 9,4 C 57 % 1036,2 hPa 0,0 l/m O 0,92 h 412 W/m 3,9 km/h (1 Bft)
14.02.2019 14:00 9,9 C 53 % 1035,4 hPa 0,0 l/m O 0,58 h 261 W/m 3,3 km/h (1 Bft)
14.02.2019 15:00 9,9 C 56 % 1035,2 hPa 0,0 l/m O 0,25 h 141 W/m 3,2 km/h (1 Bft)
14.02.2019 16:00 9,0 C 61 % 1034,8 hPa 0,0 l/m N 0,17 h 64 W/m 0,3 km/h (0 Bft)
14.02.2019 17:00 6,3 C 71 % 1035,0 hPa 0,0 l/m N 0,08 h 11 W/m 0,0 km/h (0 Bft)
14.02.2019 18:00 4,7 C 74 % 1035,1 hPa 0,0 l/m O 0,00 h 0 W/m 0,7 km/h (0 Bft)
14.02.2019 19:00 3,2 C 78 % 1035,4 hPa 0,0 l/m O 0,00 h 0 W/m 1,0 km/h (0 Bft)
14.02.2019 20:00 2,5 C 82 % 1035,3 hPa 0,0 l/m O 0,00 h 0 W/m 1,5 km/h (1 Bft)
14.02.2019 21:00 1,9 C 84 % 1034,9 hPa 0,0 l/m O 0,00 h 0 W/m 0,9 km/h (0 Bft)
14.02.2019 22:00 1,2 C 85 % 1034,9 hPa 0,0 l/m O 0,00 h 0 W/m 2,9 km/h (1 Bft)
14.02.2019 23:00 0,7 C 87 % 1035,0 hPa 0,0 l/m N 0,00 h 0 W/m 0,3 km/h (0 Bft)
15.02.2019 00:00 -0,1 C 88 % 1034,9 hPa 0,0 l/m O 0,00 h 0 W/m 0,0 km/h (0 Bft)
15.02.2019 01:00 -0,4 C 90 % 1034,4 hPa 0,0 l/m O 0,00 h 0 W/m 1,5 km/h (1 Bft)
15.02.2019 02:00 -0,5 C 91 % 1034,3 hPa 0,0 l/m O 0,00 h 0 W/m 2,9 km/h (1 Bft)
15.02.2019 03:00 -0,6 C 92 % 1033,8 hPa 0,0 l/m O 0,00 h 0 W/m 4,1 km/h (1 Bft)
15.02.2019 04:00 -0,7 C 93 % 1033,5 hPa 0,0 l/m O 0,00 h 0 W/m 1,1 km/h (0 Bft)
15.02.2019 05:00 -1,1 C 93 % 1033,6 hPa 0,0 l/m O 0,00 h 0 W/m 2,9 km/h (1 Bft)
15.02.2019 06:00 -1,4 C 93 % 1033,5 hPa 0,0 l/m O-NO 0,00 h 0 W/m 5,3 km/h (1 Bft)
15.02.2019 07:00 -1,7 C 93 % 1033,7 hPa 0,0 l/m O-NO 0,08 h 12 W/m 3,1 km/h (1 Bft)
15.02.2019 08:00 -1,6 C 94 % 1033,9 hPa 0,0 l/m O-NO 1,00 h 120 W/m 3,6 km/h (1 Bft)
15.02.2019 09:00 0,7 C 92 % 1033,9 hPa 0,0 l/m O-NO 0,92 h 258 W/m 3,5 km/h (1 Bft)
15.02.2019 10:00 2,9 C 84 % 1033,9 hPa 0,0 l/m O-NO 0,92 h 359 W/m 1,1 km/h (0 Bft)
15.02.2019 11:00 5,9 C 73 % 1033,9 hPa 0,0 l/m O-NO 1,00 h 470 W/m 2,0 km/h (1 Bft)
15.02.2019 12:00 8,4 C 63 % 1033,3 hPa 0,0 l/m O-NO 1,00 h 497 W/m 5,3 km/h (1 Bft)
15.02.2019 13:00 10,3 C 57 % 1032,6 hPa 0,0 l/m O-NO 1,00 h 470 W/m 6,7 km/h (2 Bft)
15.02.2019 14:00 11,5 C 53 % 1031,6 hPa 0,0 l/m O-NO 1,00 h 393 W/m 7,8 km/h (2 Bft)
15.02.2019 15:00 12,2 C 48 % 1031,1 hPa 0,0 l/m NO 1,00 h 271 W/m 10,3 km/h (2 Bft)
15.02.2019 16:00 11,6 C 49 % 1030,7 hPa 0,0 l/m NO 0,50 h 98 W/m 6,3 km/h (2 Bft)
15.02.2019 17:00 9,8 C 54 % 1030,6 hPa 0,0 l/m N 0,00 h 14 W/m 2,0 km/h (1 Bft)
15.02.2019 18:00 7,6 C 59 % 1030,6 hPa 0,0 l/m NO 0,00 h 0 W/m 3,5 km/h (1 Bft)
15.02.2019 19:00 5,9 C 64 % 1030,5 hPa 0,0 l/m NO 0,00 h 0 W/m 5,6 km/h (1 Bft)
15.02.2019 20:00 4,4 C 70 % 1030,1 hPa 0,0 l/m N 0,00 h 0 W/m 0,4 km/h (0 Bft)
15.02.2019 21:00 3,1 C 74 % 1029,7 hPa 0,0 l/m N 0,00 h 0 W/m 0,3 km/h (0 Bft)
15.02.2019 22:00 2,2 C 81 % 1029,5 hPa 0,0 l/m NO 0,00 h 0 W/m 3,1 km/h (1 Bft)
15.02.2019 23:00 1,4 C 84 % 1029,4 hPa 0,0 l/m N 0,00 h 0 W/m 0,5 km/h (0 Bft)
16.02.2019 00:00 0,3 C 84 % 1029,7 hPa 0,0 l/m N 0,00 h 0 W/m 0,0 km/h (0 Bft)
16.02.2019 01:00 -0,8 C 86 % 1029,7 hPa 0,0 l/m N 0,00 h 0 W/m 0,0 km/h (0 Bft)
16.02.2019 02:00 -1,6 C 87 % 1029,6 hPa 0,0 l/m N 0,00 h 0 W/m 0,0 km/h (0 Bft)
16.02.2019 03:00 -2,2 C 89 % 1029,3 hPa 0,0 l/m N 0,00 h 0 W/m 0,0 km/h (0 Bft)
16.02.2019 04:00 -2,7 C 90 % 1029,5 hPa 0,0 l/m N 0,00 h 0 W/m 0,0 km/h (0 Bft)
16.02.2019 05:00 -3,2 C 91 % 1029,6 hPa 0,0 l/m N 0,00 h 0 W/m 0,0 km/h (0 Bft)
16.02.2019 06:00 -3,6 C 92 % 1029,7 hPa 0,0 l/m N 0,00 h 0 W/m 0,0 km/h (0 Bft)
16.02.2019 07:00 -3,9 C 92 % 1030,1 hPa 0,0 l/m N 0,00 h 13 W/m 0,0 km/h (0 Bft)
16.02.2019 08:00 -3,8 C 93 % 1030,5 hPa 0,0 l/m N 0,83 h 114 W/m 0,0 km/h (0 Bft)
16.02.2019 09:00 -0,5 C 95 % 1030,4 hPa 0,0 l/m N 0,92 h 260 W/m 0,0 km/h (0 Bft)
16.02.2019 10:00 3,5 C 86 % 1030,0 hPa 0,0 l/m NO 0,92 h 372 W/m 4,1 km/h (1 Bft)
16.02.2019 11:00 7,4 C 67 % 1030,0 hPa 0,0 l/m S-SW 1,00 h 479 W/m 10,3 km/h (2 Bft)
16.02.2019 12:00 9,7 C 60 % 1029,5 hPa 0,0 l/m S-SW 1,00 h 506 W/m 9,8 km/h (2 Bft)
16.02.2019 13:00 11,5 C 57 % 1028,8 hPa 0,0 l/m S 1,00 h 481 W/m 11,6 km/h (2 Bft)
16.02.2019 14:00 12,8 C 53 % 1028,1 hPa 0,0 l/m S-SW 1,00 h 406 W/m 10,9 km/h (2 Bft)
16.02.2019 15:00 13,3 C 51 % 1027,6 hPa 0,0 l/m S-SW 1,00 h 281 W/m 8,6 km/h (2 Bft)
16.02.2019 16:00 12,6 C 53 % 1027,3 hPa 0,0 l/m S-SW 0,58 h 107 W/m 5,1 km/h (1 Bft)
16.02.2019 17:00 9,4 C 62 % 1027,2 hPa 0,0 l/m N 0,00 h 14 W/m 0,0 km/h (0 Bft)
16.02.2019 18:00 6,5 C 69 % 1027,7 hPa 0,0 l/m N 0,00 h 0 W/m 0,0 km/h (0 Bft)
16.02.2019 19:00 4,4 C 73 % 1027,9 hPa 0,0 l/m N 0,00 h 0 W/m 0,0 km/h (0 Bft)
16.02.2019 20:00 2,5 C 78 % 1027,9 hPa 0,0 l/m N 0,00 h 0 W/m 0,0 km/h (0 Bft)
16.02.2019 21:00 1,3 C 81 % 1027,7 hPa 0,0 l/m N 0,00 h 0 W/m 0,0 km/h (0 Bft)
16.02.2019 22:00 0,6 C 84 % 1027,6 hPa 0,0 l/m N 0,00 h 0 W/m 0,0 km/h (0 Bft)
16.02.2019 23:00 -0,3 C 85 % 1027,5 hPa 0,0 l/m N 0,00 h 0 W/m 0,0 km/h (0 Bft)
17.02.2019 00:00 -1,0 C 86 % 1027,4 hPa 0,0 l/m N 0,00 h 0 W/m 0,0 km/h (0 Bft)
17.02.2019 01:00 -1,6 C 87 % 1027,4 hPa 0,0 l/m N 0,00 h 0 W/m 0,0 km/h (0 Bft)
17.02.2019 02:00 -2,2 C 88 % 1027,4 hPa 0,0 l/m N 0,00 h 0 W/m 0,0 km/h (0 Bft)
17.02.2019 03:00 -2,7 C 89 % 1027,2 hPa 0,0 l/m N 0,00 h 0 W/m 0,0 km/h (0 Bft)
17.02.2019 04:00 -3,2 C 90 % 1027,1 hPa 0,0 l/m N 0,00 h 0 W/m 0,0 km/h (0 Bft)
17.02.2019 05:00 -3,5 C 91 % 1027,1 hPa 0,0 l/m N 0,00 h 0 W/m 0,0 km/h (0 Bft)
17.02.2019 06:00 -3,8 C 91 % 1027,1 hPa 0,0 l/m N 0,00 h 0 W/m 0,0 km/h (0 Bft)
17.02.2019 07:00 -4,1 C 92 % 1027,2 hPa 0,0 l/m N 0,00 h 12 W/m 0,0 km/h (0 Bft)
17.02.2019 08:00 -3,6 C 93 % 1027,3 hPa 0,0 l/m N 1,00 h 126 W/m 0,0 km/h (0 Bft)
17.02.2019 09:00 -0,1 C 91 % 1027,2 hPa 0,0 l/m N 1,00 h 272 W/m 0,0 km/h (0 Bft)
17.02.2019 10:00 5,2 C 72 % 1026,9 hPa 0,0 l/m S-SW 0,92 h 385 W/m 7,6 km/h (2 Bft)
17.02.2019 11:00 9,1 C 52 % 1026,5 hPa 0,0 l/m S-SW 1,00 h 493 W/m 12,2 km/h (2 Bft)
17.02.2019 12:00 11,5 C 45 % 1025,8 hPa 0,0 l/m S-SW 1,00 h 522 W/m 11,3 km/h (2 Bft)
17.02.2019 13:00 13,5 C 43 % 1025,1 hPa 0,0 l/m S-SW 1,00 h 494 W/m 9,0 km/h (2 Bft)
17.02.2019 14:00 14,9 C 42 % 1024,4 hPa 0,0 l/m S-SW 1,00 h 416 W/m 9,0 km/h (2 Bft)
17.02.2019 15:00 15,0 C 43 % 1023,8 hPa 0,0 l/m S-SW 1,00 h 287 W/m 9,8 km/h (2 Bft)
17.02.2019 16:00 13,8 C 48 % 1023,4 hPa 0,0 l/m S-SW 0,67 h 113 W/m 6,3 km/h (2 Bft)
17.02.2019 17:00 10,7 C 55 % 1023,2 hPa 0,0 l/m N 0,08 h 15 W/m 0,0 km/h (0 Bft)
17.02.2019 18:00 7,2 C 64 % 1023,4 hPa 0,0 l/m N 0,00 h 0 W/m 0,0 km/h (0 Bft)
17.02.2019 19:00 4,9 C 70 % 1023,8 hPa 0,0 l/m N 0,00 h 0 W/m 0,0 km/h (0 Bft)
17.02.2019 20:00 3,0 C 75 % 1023,9 hPa 0,0 l/m N 0,00 h 0 W/m 0,0 km/h (0 Bft)
17.02.2019 21:00 1,6 C 79 % 1024,1 hPa 0,0 l/m N 0,00 h 0 W/m 0,0 km/h (0 Bft)
17.02.2019 22:00 0,5 C 80 % 1024,1 hPa 0,0 l/m N 0,00 h 0 W/m 0,0 km/h (0 Bft)
17.02.2019 23:00 -0,4 C 83 % 1023,8 hPa 0,0 l/m N 0,00 h 0 W/m 0,0 km/h (0 Bft)
Min-Datum _ 13.02.19 17.02.19 11.02.19 - - - - 11.02.19
_ Min-Zeit 07:50 13:45 00:00 - - - - 18:00
Minimum _ -5,1 C 42 % 1005,9 hPa - - - - 0,0 km/h (0 Bft)
Max-Datum _ 17.02.19 13.02.19 13.02.19 11.02.19 - 11.02.19 14.02.19 11.02.19
_ Max-Zeit 15:00 09:15 08:40 05:15 - 11:45 13:00 00:30
Maximum _ 15,3 C 95 % 1037,9 hPa 0,6 l/m - 0,08 h 552 W/m 32,2 km/h
W (5 Bft)
Durchschnitt _ 2,3 C 78 % 1030,1 hPa #0,8 l/m W-NW #44:45 h 224 W/m 4,6 km/h (1 Bft)